Time;durP1;ratioP1;P1;durP2;ratioP2;P2;SDS_P1;SDS_P2;PMS_P1;PMS_P2;Temp;Humidity;BMP_temperature;BMP_pressure;BME280_temperature;BME280_humidity;BME280_pressure;Samples;Min_cycle;Max_cycle;Signal;HPM_P1;HPM_P2
2021/04/29 00:04:40;;;;;;;;;;;;;;;13.34;66.90;94626.72;5048964;22;19980;-81
2021/04/29 00:07:06;;;;;;;;;;;;;;;13.32;67.60;94618.34;5015252;28;19925;-82
2021/04/29 00:09:32;;;;;;;;;;;;;;;13.28;67.50;94611.28;4996390;28;20403;-81
2021/04/29 00:11:57;;;;;;;;;;;;;;;13.27;67.26;94620.94;4980592;28;19997;-81
2021/04/29 00:14:47;;;;;;;;;;;;;;;13.31;67.65;94618.59;4995431;28;20288;-81
2021/04/29 00:17:12;;;;;;;;;;;;;;;13.32;67.01;94614.94;4994044;28;20382;-80
2021/04/29 00:19:37;;;;;;;;;;;;;;;13.28;67.92;94621.72;5119820;23;19926;-80
2021/04/29 00:22:03;;;;;;;;;;;;;;;13.26;67.69;94619.38;4992345;28;19921;-80
2021/04/29 00:24:28;;;;;;;;;;;;;;;13.30;67.23;94619.63;4973210;28;19973;-80
2021/04/29 00:26:53;;;;;;;;;;;;;;;13.24;67.52;94620.66;4974661;28;19922;-80
2021/04/29 00:29:19;;;;;;;;;;;;;;;13.09;68.45;94624.72;4977144;28;19918;-79
2021/04/29 00:31:45;;;;;;;;;;;;;;;13.14;68.51;94619.53;5033198;23;19926;-78
2021/04/29 00:34:10;;;;;;;;;;;;;;;13.16;67.92;94624.47;4988564;28;19924;-80
2021/04/29 00:36:36;;;;;;;;;;;;;;;13.21;67.53;94627.97;4975416;28;19924;-80
2021/04/29 00:39:01;;;;;;;;;;;;;;;13.21;67.67;94627.19;4977984;28;20484;-79
2021/04/29 00:41:26;;;;;;;;;;;;;;;13.13;68.07;94625.78;4977880;28;19921;-80
2021/04/29 00:43:52;;;;;;;;;;;;;;;13.03;68.41;94625.72;4976843;28;19941;-80
2021/04/29 00:46:17;;;;;;;;;;;;;;;13.02;68.45;94629.38;4976819;28;19928;-79
2021/04/29 00:48:43;;;;;;;;;;;;;;;13.02;68.41;94624.16;5010132;23;19926;-80
2021/04/29 00:51:08;;;;;;;;;;;;;;;13.00;68.18;94621.00;4984538;28;19968;-80
2021/04/29 00:53:36;;;;;;;;;;;;;;;12.94;68.79;94624.63;5008326;28;19922;-79
2021/04/29 00:56:01;;;;;;;;;;;;;;;12.92;68.82;94624.88;5029224;28;19944;-78
2021/04/29 00:58:26;;;;;;;;;;;;;;;12.99;68.53;94629.84;4999510;28;20401;-78
2021/04/29 01:00:52;;;;;;;;;;;;;;;12.98;68.25;94623.06;4996722;28;20017;-78
2021/04/29 01:03:17;;;;;;;;;;;;;;;12.99;68.33;94629.84;5089156;23;19922;-78
2021/04/29 01:05:48;;;;;;;;;;;;;;;13.04;67.96;94627.31;4989624;28;19928;-78
2021/04/29 01:08:15;;;;;;;;;;;;;;;13.07;68.16;94631.22;4981512;28;19925;-81
2021/04/29 01:10:43;;;;;;;;;;;;;;;13.08;67.55;94638.81;4988638;28;19917;-80
2021/04/29 01:13:12;;;;;;;;;;;;;;;13.13;67.55;94636.22;5015929;22;19921;-80
2021/04/29 01:15:41;;;;;;;;;;;;;;;13.12;67.82;94629.44;5118627;22;20507;-80
2021/04/29 01:18:07;;;;;;;;;;;;;;;13.15;67.48;94639.38;4989993;28;20453;-80
2021/04/29 01:20:36;;;;;;;;;;;;;;;13.14;67.75;94637.78;4991006;28;19926;-80
2021/04/29 01:25:41;;;;;;;;;;;;;;;13.25;67.23;94645.72;4974821;28;19922;-80
2021/04/29 01:28:12;;;;;;;;;;;;;;;13.24;67.68;94641.53;4974187;28;19918;-80
2021/04/29 01:30:38;;;;;;;;;;;;;;;13.26;67.82;94655.13;4968762;28;19922;-80
2021/04/29 01:33:04;;;;;;;;;;;;;;;13.27;67.24;94651.50;4988419;28;19968;-80
2021/04/29 01:35:29;;;;;;;;;;;;;;;13.30;67.22;94649.16;4952373;28;19918;-80
2021/04/29 01:37:55;;;;;;;;;;;;;;;13.32;67.37;94648.91;4964878;28;19918;-80
2021/04/29 01:40:21;;;;;;;;;;;;;;;13.30;67.38;94648.38;4965945;28;19941;-80
2021/04/29 01:42:46;;;;;;;;;;;;;;;13.24;67.67;94636.31;4972484;28;19926;-80
2021/04/29 01:45:12;;;;;;;;;;;;;;;13.16;68.75;94640.94;4966464;28;20301;-81
2021/04/29 01:47:37;;;;;;;;;;;;;;;13.23;68.06;94650.41;4945721;28;20023;-80
2021/04/29 01:50:03;;;;;;;;;;;;;;;13.21;67.99;94648.84;4966170;28;19921;-80
2021/04/29 01:52:28;;;;;;;;;;;;;;;13.20;68.15;94647.28;4964936;28;19918;-80
2021/04/29 01:54:54;;;;;;;;;;;;;;;13.18;68.42;94644.13;4964689;28;19918;-80
2021/04/29 01:57:19;;;;;;;;;;;;;;;13.19;68.51;94648.31;4949149;28;20078;-80
2021/04/29 01:59:44;;;;;;;;;;;;;;;13.21;68.54;94643.63;5019074;23;19922;-80
2021/04/29 02:02:10;;;;;;;;;;;;;;;13.21;68.98;94654.06;4994272;28;19930;-80
2021/04/29 02:04:35;;;;;;;;;;;;;;;13.25;68.63;94643.13;5008786;28;19964;-80
2021/04/29 02:07:01;;;;;;;;;;;;;;;13.32;68.35;94648.91;4993139;28;20411;-80
2021/04/29 02:09:26;;;;;;;;;;;;;;;13.37;68.21;94651.56;4976463;28;19920;-80
2021/04/29 02:11:52;;;;;;;;;;;;;;;13.42;68.29;94643.75;5017061;23;19926;-81
2021/04/29 02:14:20;;;;;;;;;;;;;;;13.41;67.90;94650.78;5004053;28;20016;-80
2021/04/29 02:16:46;;;;;;;;;;;;;;;13.44;68.34;94644.28;5004809;28;19928;-80
2021/04/29 02:22:06;;;;;;;;;;;;;;;13.34;68.73;94652.03;4926445;29;19930;-79
2021/04/29 02:24:32;;;;;;;;;;;;;;;13.37;68.92;94641.91;4940192;29;19926;-79
2021/04/29 02:27:00;;;;;;;;;;;;;;;13.41;68.26;94647.41;4938940;29;19943;-80
2021/04/29 02:29:25;;;;;;;;;;;;;;;13.45;67.62;94656.28;4943447;28;19919;-80
2021/04/29 02:31:51;;;;;;;;;;;;;;;13.43;67.79;94655.75;5072080;22;19922;-80
2021/04/29 02:34:16;;;;;;;;;;;;;;;13.39;68.11;94652.88;5021185;28;20008;-80
2021/04/29 02:36:41;;;;;;;;;;;;;;;13.41;68.16;94652.63;5024047;28;19928;-80
2021/04/29 02:39:07;;;;;;;;;;;;;;;13.41;68.03;94652.63;5135012;22;19955;-80
2021/04/29 02:41:36;;;;;;;;;;;;;;;13.41;68.23;94652.63;5101999;22;19932;31
2021/04/29 02:44:01;;;;;;;;;;;;;;;13.42;68.27;94654.19;4975771;28;20009;-79
2021/04/29 02:46:27;;;;;;;;;;;;;;;13.37;68.35;94659.41;4975152;28;19918;-79
2021/04/29 02:48:52;;;;;;;;;;;;;;;13.35;68.44;94658.84;4954165;28;20406;-80
2021/04/29 02:51:17;;;;;;;;;;;;;;;13.30;68.13;94661.41;4959105;28;19918;-80
2021/04/29 02:53:43;;;;;;;;;;;;;;;13.30;68.67;94664.81;4971037;28;20321;-79
2021/04/29 02:56:08;;;;;;;;;;;;;;;13.32;68.40;94667.19;4971306;28;20002;-79
2021/04/29 02:58:49;;;;;;;;;;;;;;;13.32;68.69;94667.19;4969355;28;19985;-80
2021/04/29 03:01:18;;;;;;;;;;;;;;;13.28;68.41;94668.72;5024208;22;19929;-80
2021/04/29 03:06:08;;;;;;;;;;;;;;;13.21;68.60;94669.75;4999595;22;19933;-80
2021/04/29 03:08:33;;;;;;;;;;;;;;;13.30;68.24;94677.09;4983888;28;20012;-79
2021/04/29 03:10:59;;;;;;;;;;;;;;;13.30;68.28;94683.09;4984435;28;20021;-80
2021/04/29 03:13:24;;;;;;;;;;;;;;;13.24;67.77;94675.50;4990342;28;19929;-78
2021/04/29 03:15:50;;;;;;;;;;;;;;;13.16;68.17;94676.69;4996780;28;19945;-78
2021/04/29 03:18:15;;;;;;;;;;;;;;;13.11;68.19;94682.69;4996391;28;19929;-78
2021/04/29 03:20:41;;;;;;;;;;;;;;;13.08;67.89;94680.56;4996311;28;19918;-79
2021/04/29 03:23:06;;;;;;;;;;;;;;;13.08;68.14;94685.78;5002498;28;19921;-79
2021/04/29 03:25:31;;;;;;;;;;;;;;;13.00;68.12;94688.06;4998990;28;19940;-79
2021/04/29 03:27:56;;;;;;;;;;;;;;;13.00;68.44;94688.84;4986614;28;19929;-80
2021/04/29 03:30:22;;;;;;;;;;;;;;;12.99;68.03;94692.50;4981666;28;20350;-80
2021/04/29 03:32:47;;;;;;;;;;;;;;;12.96;68.50;94695.63;4983781;28;19921;-79
2021/04/29 03:35:12;;;;;;;;;;;;;;;12.93;68.58;94688.28;4984766;28;20009;-79
2021/04/29 03:37:41;;;;;;;;;;;;;;;12.95;68.46;94701.88;4982227;28;20393;-78
2021/04/29 03:40:06;;;;;;;;;;;;;;;12.96;68.33;94700.84;4980967;28;20071;-80
2021/04/29 03:42:32;;;;;;;;;;;;;;;12.97;68.63;94707.63;5000670;23;20465;-83
2021/04/29 03:44:57;;;;;;;;;;;;;;;12.86;68.68;94703.38;5034586;28;19964;-81
2021/04/29 03:47:28;;;;;;;;;;;;;;;12.90;68.39;94715.69;5085570;22;20451;-79
2021/04/29 03:49:53;;;;;;;;;;;;;;;13.05;67.73;94714.22;4991540;28;19918;-78
2021/04/29 03:52:19;;;;;;;;;;;;;;;13.06;67.81;94711.38;4980889;28;20382;-78
2021/04/29 03:54:44;;;;;;;;;;;;;;;13.12;67.76;94718.19;4971754;28;19925;-78
2021/04/29 03:57:09;;;;;;;;;;;;;;;13.23;67.39;94713.09;4973172;28;20309;-78
2021/04/29 03:59:35;;;;;;;;;;;;;;;13.40;66.92;94714.50;4971096;28;19922;-79
2021/04/29 04:02:00;;;;;;;;;;;;;;;13.54;66.39;94717.47;4970618;28;19920;-78
2021/04/29 04:04:25;;;;;;;;;;;;;;;13.71;65.91;94720.72;4970487;28;19918;-78
2021/04/29 04:06:53;;;;;;;;;;;;;;;13.94;65.18;94722.13;4971156;28;19926;-79
2021/04/29 04:09:18;;;;;;;;;;;;;;;14.60;63.91;94724.22;4955062;28;19921;-81
2021/04/29 04:11:43;;;;;;;;;;;;;;;15.40;60.96;94720.09;4973525;28;19940;-80
2021/04/29 04:14:08;;;;;;;;;;;;;;;16.24;57.90;94729.06;4980839;28;19922;-79
2021/04/29 04:16:34;;;;;;;;;;;;;;;16.87;56.04;94728.53;4988878;28;19945;-79
2021/04/29 04:18:59;;;;;;;;;;;;;;;17.02;55.56;94728.44;4981861;28;19922;-80
2021/04/29 04:21:25;;;;;;;;;;;;;;;17.42;53.90;94726.56;4974050;28;20404;-80
2021/04/29 04:23:51;;;;;;;;;;;;;;;17.84;51.79;94734.59;4973693;28;19924;-80
2021/04/29 04:26:16;;;;;;;;;;;;;;;18.19;50.94;94727.34;4972056;28;19930;-80
2021/04/29 04:31:12;;;;;;;;;;;;;;;18.56;49.58;94727.44;5006658;22;19929;-80
2021/04/29 04:33:38;;;;;;;;;;;;;;;18.55;49.52;94738.25;4998293;28;19917;-84
2021/04/29 04:36:03;;;;;;;;;;;;;;;18.46;49.90;94740.72;5005698;28;20554;-80
2021/04/29 04:38:38;;;;;;;;;;;;;;;18.33;49.92;94736.16;4999485;28;20624;-80
2021/04/29 04:41:03;;;;;;;;;;;;;;;18.25;49.98;94734.94;5003993;28;20448;-80
2021/04/29 04:43:29;;;;;;;;;;;;;;;18.28;50.69;94737.00;4985608;28;19980;-80
2021/04/29 04:45:54;;;;;;;;;;;;;;;18.32;50.73;94755.63;5002657;28;20023;-80
2021/04/29 04:48:19;;;;;;;;;;;;;;;18.20;50.19;94752.63;5007255;28;19997;-80
2021/04/29 04:50:45;;;;;;;;;;;;;;;18.20;50.21;94752.63;5005331;28;19921;-80
2021/04/29 04:53:10;;;;;;;;;;;;;;;18.46;49.84;94756.53;5008383;28;19922;-80
2021/04/29 04:55:41;;;;;;;;;;;;;;;18.76;50.56;94759.88;5005811;28;19925;-79
2021/04/29 04:58:06;;;;;;;;;;;;;;;19.33;49.46;94757.97;5005970;28;19921;-80
2021/04/29 05:00:31;;;;;;;;;;;;;;;20.50;47.12;94758.59;5003937;28;19968;-80
2021/04/29 05:02:57;;;;;;;;;;;;;;;22.33;41.58;94749.81;5005484;28;19917;-80
2021/04/29 05:05:22;;;;;;;;;;;;;;;24.30;36.86;94754.63;5005279;28;19917;-80
2021/04/29 05:07:51;;;;;;;;;;;;;;;25.99;33.56;94757.78;4988706;28;19961;-80
2021/04/29 05:10:16;;;;;;;;;;;;;;;27.52;30.92;94749.13;5020442;28;19972;-80
2021/04/29 05:12:41;;;;;;;;;;;;;;;28.83;28.59;94753.53;5002832;28;19921;-80
2021/04/29 05:15:07;;;;;;;;;;;;;;;30.05;27.23;94754.84;5028184;28;20032;-79
2021/04/29 05:17:35;;;;;;;;;;;;;;;31.04;25.79;94748.34;5011599;28;19925;-80
2021/04/29 05:20:00;;;;;;;;;;;;;;;31.66;24.59;94746.06;5007798;28;19917;-80
2021/04/29 05:22:26;;;;;;;;;;;;;;;32.11;23.73;94749.63;5005572;23;20306;-80
2021/04/29 05:24:51;;;;;;;;;;;;;;;32.40;23.12;94752.59;4986562;28;19917;-80
2021/04/29 05:27:16;;;;;;;;;;;;;;;31.22;24.19;94747.84;4983298;28;19918;-80
2021/04/29 05:29:42;;;;;;;;;;;;;;;30.55;25.01;94755.66;4984406;28;19918;-80
2021/04/29 05:32:07;;;;;;;;;;;;;;;29.59;26.41;94752.06;4987747;28;19922;-79
2021/04/29 05:34:33;;;;;;;;;;;;;;;28.73;26.84;94759.41;4989232;28;19957;-79
2021/04/29 05:36:58;;;;;;;;;;;;;;;27.49;28.85;94758.56;5000137;28;19977;-79
2021/04/29 05:39:23;;;;;;;;;;;;;;;26.50;30.51;94763.63;4984504;28;19941;-79
2021/04/29 05:41:49;;;;;;;;;;;;;;;25.76;31.65;94769.94;4987452;28;19928;-79
2021/04/29 05:44:14;;;;;;;;;;;;;;;24.93;33.55;94765.41;4986910;28;19965;-80
2021/04/29 05:46:41;;;;;;;;;;;;;;;24.60;34.22;94773.25;4985994;28;20370;-80
2021/04/29 05:49:06;;;;;;;;;;;;;;;23.94;34.86;94773.66;4986344;28;19922;-80
2021/04/29 05:51:31;;;;;;;;;;;;;;;23.56;35.64;94773.53;4985239;28;19925;-80
2021/04/29 05:53:57;;;;;;;;;;;;;;;23.15;36.91;94768.72;4992405;28;19921;-80
2021/04/29 05:56:22;;;;;;;;;;;;;;;22.87;37.39;94773.50;5062263;22;20405;-79
2021/04/29 05:58:51;;;;;;;;;;;;;;;22.78;37.66;94776.13;4992584;28;19926;-79
2021/04/29 06:01:16;;;;;;;;;;;;;;;22.75;37.53;94782.81;4994664;28;19925;-79
2021/04/29 06:03:42;;;;;;;;;;;;;;;22.66;38.44;94775.94;4994472;28;19924;-79
2021/04/29 06:06:07;;;;;;;;;;;;;;;22.63;38.76;94777.34;4994392;28;19922;-79
2021/04/29 06:08:32;;;;;;;;;;;;;;;22.68;38.51;94782.50;4977292;28;19918;-79
2021/04/29 06:10:58;;;;;;;;;;;;;;;22.93;37.91;94775.69;4993787;28;20579;-79
2021/04/29 06:13:23;;;;;;;;;;;;;;;23.21;37.68;94781.50;4995969;28;19968;-78
2021/04/29 06:15:48;;;;;;;;;;;;;;;23.34;37.87;94783.22;4997744;28;19922;-79
2021/04/29 06:18:14;;;;;;;;;;;;;;;23.69;37.54;94788.53;4998377;28;19918;-79
2021/04/29 06:20:40;;;;;;;;;;;;;;;23.94;36.61;94790.38;4994101;28;19965;-79
2021/04/29 06:23:05;;;;;;;;;;;;;;;24.16;36.48;94792.00;4993278;28;19945;-78
2021/04/29 06:25:31;;;;;;;;;;;;;;;24.36;36.11;94795.09;4993287;28;20393;-79
2021/04/29 06:27:59;;;;;;;;;;;;;;;24.36;35.48;94793.22;4994347;28;19918;-79
2021/04/29 06:30:25;;;;;;;;;;;;;;;24.25;35.88;94799.97;4993448;28;19917;-79
2021/04/29 06:32:50;;;;;;;;;;;;;;;24.06;36.30;94794.22;4999748;28;19940;-78
2021/04/29 06:35:16;;;;;;;;;;;;;;;23.71;37.38;94790.88;5018445;22;19922;-79
2021/04/29 06:37:44;;;;;;;;;;;;;;;23.63;37.64;94790.56;4992695;28;19961;-78
2021/04/29 06:40:12;;;;;;;;;;;;;;;23.77;36.66;94798.38;4993338;28;19918;-79
2021/04/29 06:42:37;;;;;;;;;;;;;;;24.21;36.97;94804.34;4994554;28;19964;-79
2021/04/29 06:45:02;;;;;;;;;;;;;;;24.45;36.13;94793.97;5022874;22;19957;-79
2021/04/29 06:47:31;;;;;;;;;;;;;;;24.39;36.27;94799.78;4986235;28;19941;-79
2021/04/29 06:49:57;;;;;;;;;;;;;;;24.46;35.63;94789.44;5010758;22;20001;-79
2021/04/29 06:52:22;;;;;;;;;;;;;;;24.77;35.11;94792.56;5089843;22;19946;-78
2021/04/29 06:54:47;;;;;;;;;;;;;;;24.93;35.26;94782.16;4984983;28;19922;-78
2021/04/29 06:57:13;;;;;;;;;;;;;;;25.29;35.49;94778.94;5007793;23;20329;-79
2021/04/29 06:59:38;;;;;;;;;;;;;;;25.01;35.20;94773.34;4994180;28;19977;-79
2021/04/29 07:02:03;;;;;;;;;;;;;;;24.99;35.96;94775.53;4991601;28;19967;-79
2021/04/29 07:04:29;;;;;;;;;;;;;;;25.12;35.51;94774.53;4994525;28;20223;-79
2021/04/29 07:06:54;;;;;;;;;;;;;;;25.17;35.70;94772.75;4994143;28;20004;-79
2021/04/29 07:09:23;;;;;;;;;;;;;;;25.31;34.44;94775.94;4976086;28;20456;-79
2021/04/29 07:11:48;;;;;;;;;;;;;;;25.55;34.35;94776.06;4993456;28;19963;-79
2021/04/29 07:14:13;;;;;;;;;;;;;;;25.59;34.66;94771.63;4993838;28;19921;-79
2021/04/29 07:16:39;;;;;;;;;;;;;;;25.57;35.37;94773.84;4992503;28;19976;-80
2021/04/29 07:19:04;;;;;;;;;;;;;;;25.29;35.33;94783.47;4993552;28;19921;-80
2021/04/29 07:21:29;;;;;;;;;;;;;;;25.48;34.66;94781.13;4993522;28;19921;-79
2021/04/29 07:23:55;;;;;;;;;;;;;;;25.61;35.21;94781.97;4993808;28;20135;-79
2021/04/29 07:26:21;;;;;;;;;;;;;;;25.55;34.17;94776.06;4994512;28;19918;-79
2021/04/29 07:28:46;;;;;;;;;;;;;;;25.57;34.81;94779.19;4992514;28;19936;-78
2021/04/29 07:31:14;;;;;;;;;;;;;;;25.52;35.62;94776.69;4991265;28;19918;-80
2021/04/29 07:33:40;;;;;;;;;;;;;;;25.60;35.21;94767.88;4991349;28;20706;-78
2021/04/29 07:36:05;;;;;;;;;;;;;;;24.98;36.56;94768.66;4992838;28;19924;-78
2021/04/29 07:38:31;;;;;;;;;;;;;;;24.43;37.52;94774.91;4993858;28;19914;-79
2021/04/29 07:40:56;;;;;;;;;;;;;;;24.35;37.37;94773.06;4994488;28;19921;-77
2021/04/29 07:43:21;;;;;;;;;;;;;;;24.17;38.07;94777.63;4993660;28;19948;-80
2021/04/29 07:45:46;;;;;;;;;;;;;;;24.34;37.76;94776.03;4975701;28;19918;-81
2021/04/29 07:48:12;;;;;;;;;;;;;;;24.50;36.93;94769.84;4976271;28;19925;-81
2021/04/29 07:50:37;;;;;;;;;;;;;;;24.50;35.97;94764.53;4993005;28;19933;-80
2021/04/29 07:53:02;;;;;;;;;;;;;;;24.44;36.44;94773.81;4991946;28;19922;-81
2021/04/29 07:55:28;;;;;;;;;;;;;;;24.48;36.64;94772.06;4997246;28;20020;-78
2021/04/29 07:57:53;;;;;;;;;;;;;;;24.48;37.24;94772.06;4992389;28;19918;-78
2021/04/29 08:00:19;;;;;;;;;;;;;;;24.47;36.67;94767.84;4994162;28;19940;-77
2021/04/29 08:02:44;;;;;;;;;;;;;;;24.33;37.04;94764.63;4985067;28;19917;-77
2021/04/29 08:05:10;;;;;;;;;;;;;;;24.45;37.04;94762.06;5001156;28;20654;-78
2021/04/29 08:07:35;;;;;;;;;;;;;;;24.47;36.03;94762.53;5009997;28;19961;-81
2021/04/29 08:10:01;;;;;;;;;;;;;;;24.60;36.28;94758.09;4990925;28;20259;-79
2021/04/29 08:12:26;;;;;;;;;;;;;;;24.57;36.35;94753.44;4991842;28;19956;-78
2021/04/29 08:14:53;;;;;;;;;;;;;;;24.28;36.54;94756.81;4990666;28;20306;-79
2021/04/29 08:17:18;;;;;;;;;;;;;;;24.23;37.45;94755.09;4975047;28;20426;-79
2021/04/29 08:19:45;;;;;;;;;;;;;;;24.23;39.05;94757.75;4992683;28;19921;-81
2021/04/29 08:22:10;;;;;;;;;;;;;;;24.31;37.76;94753.53;4975975;28;19924;-85
2021/04/29 08:24:36;;;;;;;;;;;;;;;24.21;37.26;94764.47;4993876;28;19921;-83
2021/04/29 08:29:28;;;;;;;;;;;;;;;24.03;38.12;94763.75;5038438;22;19984;-80
2021/04/29 08:31:53;;;;;;;;;;;;;;;23.92;39.20;94760.69;4999308;28;19968;-81
2021/04/29 08:34:19;;;;;;;;;;;;;;;23.90;38.59;94764.75;4985561;28;19993;-81
2021/04/29 08:36:44;;;;;;;;;;;;;;;23.89;38.59;94763.19;4984268;28;19969;-81
2021/04/29 08:39:09;;;;;;;;;;;;;;;23.82;39.12;94754.94;4983693;28;19918;-81
2021/04/29 08:41:35;;;;;;;;;;;;;;;23.65;38.20;94753.88;4983106;28;19922;-81
2021/04/29 08:44:00;;;;;;;;;;;;;;;23.48;38.94;94745.13;4982448;28;19921;-81
2021/04/29 08:46:25;;;;;;;;;;;;;;;23.43;39.02;94747.94;4982096;28;19918;-81
2021/04/29 08:48:54;;;;;;;;;;;;;;;23.44;39.26;94746.84;4966683;28;19989;-81
2021/04/29 08:51:20;;;;;;;;;;;;;;;23.41;39.84;94740.28;4967135;28;19922;-81
2021/04/29 08:53:46;;;;;;;;;;;;;;;23.38;38.60;94745.44;4985607;28;19954;-82
2021/04/29 08:56:11;;;;;;;;;;;;;;;23.33;39.46;94749.81;4967097;28;19985;-81
2021/04/29 08:58:37;;;;;;;;;;;;;;;23.36;39.95;94743.09;4983552;28;19918;-81
2021/04/29 09:01:03;;;;;;;;;;;;;;;23.43;40.69;94745.28;4984005;28;19918;-81
2021/04/29 09:03:32;;;;;;;;;;;;;;;23.31;39.03;94738.75;4981538;28;20266;-80
2021/04/29 09:05:58;;;;;;;;;;;;;;;23.10;39.78;94740.44;4982317;28;19918;-80
2021/04/29 09:08:26;;;;;;;;;;;;;;;23.01;39.57;94732.50;4981575;28;19922;-82
2021/04/29 09:10:51;;;;;;;;;;;;;;;22.92;40.28;94728.28;4980626;28;20345;-82
2021/04/29 09:13:21;;;;;;;;;;;;;;;22.98;40.80;94725.19;4963772;28;19918;-82
2021/04/29 09:15:46;;;;;;;;;;;;;;;23.01;40.32;94721.13;4980485;28;19925;-81
2021/04/29 09:18:14;;;;;;;;;;;;;;;23.00;40.30;94719.56;4986556;28;19958;-80
2021/04/29 09:20:51;;;;;;;;;;;;;;;22.84;40.81;94715.81;4993150;28;19942;-81
2021/04/29 09:23:19;;;;;;;;;;;;;;;22.55;40.38;94719.78;4980936;28;19941;-81
2021/04/29 09:25:58;;;;;;;;;;;;;;;22.34;40.98;94719.59;4979934;28;19925;-81
2021/04/29 09:28:33;;;;;;;;;;;;;;;22.19;41.33;94716.59;4989808;28;19929;-80
2021/04/29 09:31:00;;;;;;;;;;;;;;;22.20;41.81;94715.50;4978406;28;19981;-80
2021/04/29 09:33:25;;;;;;;;;;;;;;;;;;4979449;28;19945;-80
2021/04/29 09:35:50;;;;;;;;;;;;;;;22.38;40.33;94711.81;4983347;28;19917;-81
2021/04/29 09:38:17;;;;;;;;;;;;;;;22.47;41.59;94707.31;4967310;28;19922;-80
2021/04/29 09:40:44;;;;;;;;;;;;;;;22.52;41.39;94707.16;4980895;28;20016;-81
2021/04/29 09:43:09;;;;;;;;;;;;;;;22.50;41.19;94708.56;4985189;28;19922;-81
2021/04/29 09:45:35;;;;;;;;;;;;;;;22.48;41.13;94706.22;4986699;28;19922;-82
2021/04/29 09:48:09;;;;;;;;;;;;;;;22.46;41.91;94708.41;4984885;28;19929;-81
2021/04/29 09:50:40;;;;;;;;;;;;;;;22.36;41.43;94706.03;4971515;28;19921;-81
2021/04/29 09:53:06;;;;;;;;;;;;;;;22.39;41.59;94702.75;4983660;28;19938;-80
2021/04/29 09:55:32;;;;;;;;;;;;;;;22.47;41.96;94707.31;5012071;23;20043;-80
2021/04/29 09:58:04;;;;;;;;;;;;;;;22.37;42.89;94697.78;5100198;22;19918;-80
2021/04/29 10:00:37;;;;;;;;;;;;;;;22.37;42.75;94702.28;4999702;28;20049;-80
2021/04/29 10:03:03;;;;;;;;;;;;;;;22.30;42.82;94701.97;4993514;28;19925;-81
2021/04/29 10:05:29;;;;;;;;;;;;;;;22.03;42.33;94698.44;4996951;28;19926;-81
2021/04/29 10:07:54;;;;;;;;;;;;;;;21.74;43.15;94692.84;4996077;28;19924;-80
2021/04/29 10:10:19;;;;;;;;;;;;;;;21.80;43.00;94694.28;5000772;22;19984;-81
2021/04/29 10:12:45;;;;;;;;;;;;;;;21.91;42.63;94695.56;4992788;28;19947;-82
2021/04/29 10:17:39;;;;;;;;;;;;;;;22.16;41.07;94684.34;5118629;22;19957;-81
2021/04/29 10:20:05;;;;;;;;;;;;;;;22.41;41.24;94679.38;5002484;28;19925;-82
2021/04/29 10:25:08;;;;;;;;;;;;;;;22.76;40.94;94673.03;5028417;22;19922;-81
2021/04/29 10:27:34;;;;;;;;;;;;;;;22.69;42.47;94671.94;5004047;28;19976;-82
2021/04/29 10:30:02;;;;;;;;;;;;;;;22.55;41.59;94672.09;5005312;28;19922;-82
2021/04/29 10:32:36;;;;;;;;;;;;;;;22.46;41.95;94669.44;5002867;28;20349;-82
2021/04/29 10:35:15;;;;;;;;;;;;;;;22.29;43.37;94663.31;5002577;28;19948;-81
2021/04/29 10:37:40;;;;;;;;;;;;;;;22.26;43.30;94659.41;4986846;28;19921;-81
2021/04/29 10:40:07;;;;;;;;;;;;;;;22.27;42.63;94665.47;4979499;28;20024;-80
2021/04/29 10:42:42;;;;;;;;;;;;;;;22.24;42.47;94658.16;4974409;28;19918;-82
2021/04/29 10:45:08;;;;;;;;;;;;;;;22.28;42.80;94662.53;5000150;28;19917;-81
2021/04/29 10:47:34;;;;;;;;;;;;;;;22.37;42.67;94665.22;5002072;28;19941;-82
2021/04/29 10:52:30;;;;;;;;;;;;;;;22.69;41.42;94667.44;5042650;22;19926;-81
2021/04/29 10:54:55;;;;;;;;;;;;;;;22.74;41.38;94669.91;5018159;23;19921;-78
2021/04/29 10:57:20;;;;;;;;;;;;;;;22.76;41.05;94672.25;5016592;28;19927;-80
2021/04/29 10:59:48;;;;;;;;;;;;;;;22.80;41.43;94667.91;5021080;28;19941;-82
2021/04/29 11:02:39;;;;;;;;;;;;;;;22.87;40.72;94668.22;5009404;28;19921;-81
2021/04/29 11:05:05;;;;;;;;;;;;;;;22.99;40.51;94664.97;5015374;28;19917;-83
2021/04/29 11:10:08;;;;;;;;;;;;;;;22.97;40.15;94657.31;5051679;22;19926;-82
2021/04/29 11:12:47;;;;;;;;;;;;;;;22.86;40.33;94644.69;5054705;22;20383;-80
2021/04/29 11:15:25;;;;;;;;;;;;;;;22.86;40.29;94652.66;4977357;28;19990;-80
2021/04/29 11:18:00;;;;;;;;;;;;;;;22.67;40.19;94659.00;4971945;28;19926;-82
2021/04/29 11:20:25;;;;;;;;;;;;;;;22.66;40.78;94646.84;4973968;28;19914;-81
2021/04/29 11:22:54;;;;;;;;;;;;;;;22.50;41.79;94643.09;4975940;28;19929;-81
2021/04/29 11:25:19;;;;;;;;;;;;;;;22.58;41.89;94647.59;4957723;28;19918;-82
2021/04/29 11:27:45;;;;;;;;;;;;;;;22.69;40.82;94635.63;4977771;28;19918;-81
2021/04/29 11:30:12;;;;;;;;;;;;;;;22.72;39.56;94640.28;4970138;28;19929;-81
2021/04/29 11:33:25;;;;;;;;;;;;;;;22.82;39.80;94635.78;4972674;28;19918;-80
2021/04/29 11:36:00;;;;;;;;;;;;;;;22.98;39.63;94620.97;4918426;29;19926;-81
2021/04/29 11:38:28;;;;;;;;;;;;;;;23.18;39.10;94622.97;4917974;29;19957;-81
2021/04/29 11:40:53;;;;;;;;;;;;;;;23.03;38.38;94613.63;4912645;29;19919;-81
2021/04/29 11:43:22;;;;;;;;;;;;;;;23.21;39.67;94603.75;4917396;29;19925;-82
2021/04/29 11:45:50;;;;;;;;;;;;;;;23.30;38.87;94601.88;4931636;29;20088;-81
2021/04/29 11:48:15;;;;;;;;;;;;;;;23.40;38.74;94602.59;4991631;28;19925;-82
2021/04/29 11:50:41;;;;;;;;;;;;;;;23.42;38.23;94597.75;4990242;28;19919;-81
2021/04/29 11:53:38;;;;;;;;;;;;;;;23.54;37.80;94597.88;4979328;28;20077;-82
2021/04/29 11:56:09;;;;;;;;;;;;;;;23.64;37.69;94598.34;4968302;28;19913;-81
2021/04/29 11:58:34;;;;;;;;;;;;;;;23.30;38.23;94601.88;4967944;28;19922;-79
2021/04/29 12:01:00;;;;;;;;;;;;;;;22.87;39.06;94599.31;4974700;28;19914;-81
2021/04/29 12:03:26;;;;;;;;;;;;;;;22.74;39.68;94593.03;4975432;28;19942;-80
2021/04/29 12:05:52;;;;;;;;;;;;;;;22.76;40.14;94590.06;5069716;22;19944;-80
2021/04/29 12:08:17;;;;;;;;;;;;;;;22.48;40.74;94594.16;5008816;28;19925;-79
2021/04/29 12:10:43;;;;;;;;;;;;;;;22.67;40.36;94587.44;5006343;28;19977;-80
2021/04/29 12:13:08;;;;;;;;;;;;;;;22.66;39.47;94585.88;5024994;28;19918;-81
2021/04/29 12:15:33;;;;;;;;;;;;;;;22.67;40.47;94584.78;5003908;28;19926;-81
2021/04/29 12:17:59;;;;;;;;;;;;;;;22.49;40.64;94583.25;4983087;28;19918;-81
2021/04/29 12:20:24;;;;;;;;;;;;;;;22.64;40.03;94582.78;4995392;28;19922;-81
2021/04/29 12:22:50;;;;;;;;;;;;;;;22.48;39.84;94579.03;4995762;28;19925;-82
2021/04/29 12:25:19;;;;;;;;;;;;;;;22.20;39.64;94573.25;4990796;28;19921;-81
2021/04/29 12:27:44;;;;;;;;;;;;;;;22.15;40.50;94568.91;5025123;23;19922;-82
2021/04/29 12:30:10;;;;;;;;;;;;;;;22.17;40.20;94566.72;4993488;28;19928;-81
2021/04/29 12:32:35;;;;;;;;;;;;;;;22.35;39.79;94566.72;5036794;23;19932;-83
2021/04/29 12:35:04;;;;;;;;;;;;;;;22.51;39.42;94559.84;5002189;28;19917;-81
2021/04/29 12:37:29;;;;;;;;;;;;;;;22.70;38.28;94564.81;5000478;28;19918;-81
2021/04/29 12:39:54;;;;;;;;;;;;;;;22.83;37.80;94555.97;4990236;28;20373;-80
2021/04/29 12:42:20;;;;;;;;;;;;;;;22.65;37.72;94552.53;4991387;28;19917;-82
2021/04/29 12:44:45;;;;;;;;;;;;;;;22.71;37.58;94542.53;4989927;28;20027;-82
2021/04/29 12:50:00;;;;;;;;;;;;;;;22.91;37.28;94547.19;5123668;22;19930;-83
2021/04/29 12:52:25;;;;;;;;;;;;;;;23.05;36.55;94541.69;5000855;28;19957;-81
2021/04/29 12:54:52;;;;;;;;;;;;;;;23.11;36.05;94544.97;5001322;28;19925;-83
2021/04/29 12:57:24;;;;;;;;;;;;;;;23.10;36.08;94543.41;5014884;28;20319;-82
2021/04/29 12:59:50;;;;;;;;;;;;;;;23.12;36.75;94542.00;4984356;28;19920;-81
2021/04/29 13:02:19;;;;;;;;;;;;;;;23.12;36.42;94534.06;5085956;22;19922;-82
2021/04/29 13:04:44;;;;;;;;;;;;;;;22.97;36.93;94539.88;5118403;22;19937;-83
2021/04/29 13:09:49;;;;;;;;;;;;;;;23.10;36.71;94530.91;5406217;22;19922;-81
2021/04/29 13:12:15;;;;;;;;;;;;;;;23.20;36.59;94533.22;5066695;22;19918;-82
2021/04/29 13:14:41;;;;;;;;;;;;;;;23.07;36.92;94534.19;5048713;22;20324;-81
2021/04/29 13:17:09;;;;;;;;;;;;;;;22.95;37.04;94534.09;4995540;28;19921;-82